createdAt,value
2023-03-31T00:00:17.966Z,10
2023-03-31T00:05:18.053Z,8
2023-03-31T00:10:18.774Z,9
2023-03-31T00:15:18.387Z,8
2023-03-31T00:20:18.402Z,9
2023-03-31T00:25:18.276Z,8
2023-03-31T00:30:17.990Z,9
2023-03-31T00:35:17.972Z,11
2023-03-31T00:40:18.025Z,12
2023-03-31T00:45:18.144Z,12
2023-03-31T00:50:17.913Z,13
2023-03-31T00:55:18.306Z,13
2023-03-31T01:00:18.267Z,12
2023-03-31T01:05:18.312Z,11
2023-03-31T01:10:18.002Z,12
2023-03-31T01:15:18.133Z,9
2023-03-31T01:20:17.956Z,8
2023-03-31T01:25:18.195Z,9
2023-03-31T01:30:18.749Z,7
2023-03-31T01:35:18.418Z,6
2023-03-31T01:40:18.009Z,5
2023-03-31T01:45:18.161Z,6
2023-03-31T01:50:18.261Z,8
2023-03-31T01:55:18.248Z,8
2023-03-31T02:00:18.079Z,9
2023-03-31T02:05:18.342Z,9
2023-03-31T02:10:18.348Z,10
2023-03-31T02:15:18.449Z,9
2023-03-31T02:20:18.208Z,9
2023-03-31T02:25:18.357Z,10
2023-03-31T02:30:18.196Z,11
2023-03-31T02:35:18.293Z,11
2023-03-31T02:40:16.700Z,11
2023-03-31T02:45:16.923Z,13
2023-03-31T02:50:16.298Z,12
2023-03-31T02:55:16.330Z,11
2023-03-31T03:00:16.364Z,12
2023-03-31T03:05:16.452Z,11
2023-03-31T03:10:16.622Z,11
2023-03-31T03:15:16.754Z,12
2023-03-31T03:20:16.342Z,12
2023-03-31T03:25:16.445Z,12
2023-03-31T03:30:16.499Z,12
2023-03-31T03:35:16.527Z,13
2023-03-31T03:40:16.545Z,11
2023-03-31T03:45:16.467Z,10
2023-03-31T03:50:16.750Z,11
2023-03-31T03:55:16.710Z,10
2023-03-31T04:00:17.978Z,11
2023-03-31T04:05:17.802Z,12
2023-03-31T04:10:17.498Z,13
2023-03-31T04:15:17.639Z,12
2023-03-31T04:20:17.565Z,15
2023-03-31T04:25:17.559Z,15
2023-03-31T04:30:17.621Z,13
2023-03-31T04:35:17.567Z,14
2023-03-31T04:40:17.515Z,15
2023-03-31T04:45:17.737Z,15
2023-03-31T04:50:17.637Z,14
2023-03-31T04:55:18.197Z,14
2023-03-31T05:00:17.640Z,13
2023-03-31T05:05:17.699Z,13
2023-03-31T05:10:17.613Z,14
2023-03-31T05:15:18.039Z,14
2023-03-31T05:20:17.647Z,12
2023-03-31T05:25:17.789Z,12
2023-03-31T05:30:17.940Z,12
2023-03-31T05:35:17.719Z,11
2023-03-31T05:40:17.685Z,12
2023-03-31T05:45:17.893Z,11
2023-03-31T05:50:17.793Z,13
2023-03-31T05:55:17.796Z,12
2023-03-31T06:00:17.977Z,12
2023-03-31T06:05:18.384Z,11
2023-03-31T06:10:17.771Z,14
2023-03-31T06:15:17.972Z,13
2023-03-31T06:20:27.796Z,13
2023-03-31T06:25:17.883Z,13
2023-03-31T06:30:17.964Z,14
2023-03-31T06:35:17.981Z,13
2023-03-31T06:40:18.061Z,12
2023-03-31T06:45:18.108Z,13
2023-03-31T06:50:18.046Z,15
2023-03-31T06:55:18.010Z,15
2023-03-31T07:00:21.503Z,15
2023-03-31T07:05:17.977Z,15
2023-03-31T07:10:18.034Z,13
2023-03-31T07:15:18.843Z,14
2023-03-31T07:20:18.123Z,14
2023-03-31T07:25:18.462Z,13
2023-03-31T07:30:18.129Z,13
2023-03-31T07:35:18.108Z,13
2023-03-31T07:40:19.844Z,12
2023-03-31T07:45:18.539Z,13
2023-03-31T07:50:18.183Z,12
2023-03-31T07:55:18.222Z,16
2023-03-31T08:00:18.150Z,16
2023-03-31T08:05:18.305Z,15
2023-03-31T08:10:18.402Z,14
2023-03-31T08:15:18.451Z,13
2023-03-31T08:20:18.347Z,13
2023-03-31T08:25:18.689Z,13
2023-03-31T08:30:18.176Z,14
2023-03-31T08:35:18.337Z,15
2023-03-31T08:40:16.173Z,15
2023-03-31T08:45:16.366Z,15
2023-03-31T08:50:16.167Z,14
2023-03-31T08:55:16.294Z,14
2023-03-31T09:00:16.879Z,13
2023-03-31T09:05:16.287Z,13
2023-03-31T09:10:16.403Z,12
2023-03-31T09:15:16.678Z,14
2023-03-31T09:20:16.371Z,12
2023-03-31T09:25:16.510Z,11
2023-03-31T09:30:16.592Z,11
2023-03-31T09:35:16.737Z,13
2023-03-31T09:40:16.331Z,13
2023-03-31T09:45:16.511Z,12
2023-03-31T09:50:16.433Z,11
2023-03-31T09:55:22.753Z,11
2023-03-31T10:00:16.927Z,13
2023-03-31T10:05:16.587Z,15
2023-03-31T10:10:16.503Z,16
2023-03-31T10:15:17.197Z,14
2023-03-31T10:20:16.614Z,12
2023-03-31T10:25:16.577Z,13
2023-03-31T10:30:16.805Z,12
2023-03-31T10:35:16.687Z,11
2023-03-31T10:40:17.727Z,13
2023-03-31T10:45:29.728Z,12
2023-03-31T10:50:16.767Z,14
2023-03-31T10:55:16.655Z,14
2023-03-31T11:00:16.805Z,13
2023-03-31T11:05:16.679Z,13
2023-03-31T11:10:16.891Z,12
2023-03-31T11:15:17.042Z,12
2023-03-31T11:20:16.737Z,12
2023-03-31T11:25:16.782Z,14
2023-03-31T11:30:16.918Z,13
2023-03-31T11:35:16.660Z,13
2023-03-31T11:40:16.918Z,12
2023-03-31T11:45:16.869Z,12
2023-03-31T11:50:16.970Z,11
2023-03-31T11:55:17.176Z,12
2023-03-31T12:00:16.911Z,11
2023-03-31T12:05:16.901Z,10
2023-03-31T12:10:16.809Z,11
2023-03-31T12:15:16.970Z,12
2023-03-31T12:20:16.768Z,13
2023-03-31T12:25:17.150Z,12
2023-03-31T12:30:16.889Z,12
2023-03-31T12:35:16.998Z,13
2023-03-31T12:40:17.048Z,13
2023-03-31T12:45:17.341Z,12
2023-03-31T12:50:17.094Z,13
2023-03-31T12:55:17.067Z,12
2023-03-31T13:00:17.388Z,13
2023-03-31T13:05:17.228Z,12
2023-03-31T13:10:17.027Z,13
2023-03-31T13:15:17.197Z,13
2023-03-31T13:20:17.316Z,12
2023-03-31T13:25:17.279Z,11
2023-03-31T13:30:17.023Z,12
2023-03-31T13:35:17.257Z,11
2023-03-31T13:40:17.001Z,12
2023-03-31T13:45:17.472Z,9
2023-03-31T13:50:17.028Z,10
2023-03-31T13:55:17.810Z,8
2023-03-31T14:00:17.290Z,9
2023-03-31T14:05:17.146Z,8
2023-03-31T14:10:17.265Z,12
2023-03-31T14:15:17.647Z,11
2023-03-31T14:20:17.035Z,10
2023-03-31T14:25:17.247Z,12
2023-03-31T14:30:17.306Z,12
2023-03-31T14:35:17.307Z,12
2023-03-31T14:40:17.359Z,15
2023-03-31T14:45:17.500Z,14
2023-03-31T14:50:17.334Z,14
2023-03-31T14:55:17.259Z,14
2023-03-31T15:00:17.256Z,16
2023-03-31T15:05:17.400Z,17
2023-03-31T15:10:17.291Z,15
2023-03-31T15:15:18.183Z,19
2023-03-31T15:20:17.467Z,19
2023-03-31T15:25:17.561Z,17
2023-03-31T15:30:17.469Z,16
2023-03-31T15:35:22.021Z,17
2023-03-31T15:40:17.283Z,17
2023-03-31T15:45:17.542Z,17
2023-03-31T15:50:17.536Z,17
2023-03-31T15:55:17.497Z,16
2023-03-31T16:00:17.663Z,17
2023-03-31T16:05:27.062Z,18
2023-03-31T16:10:17.418Z,18
2023-03-31T16:15:17.637Z,19
2023-03-31T16:20:17.456Z,19
2023-03-31T16:25:17.783Z,19
2023-03-31T16:30:17.837Z,18
2023-03-31T16:35:17.996Z,17
2023-03-31T16:40:17.503Z,18
2023-03-31T16:45:17.769Z,18
2023-03-31T16:50:17.545Z,17
2023-03-31T16:55:17.592Z,16
2023-03-31T17:00:17.762Z,17
2023-03-31T17:05:17.646Z,17
2023-03-31T17:10:17.820Z,18
2023-03-31T17:15:17.822Z,19
2023-03-31T17:20:17.576Z,19
2023-03-31T17:25:17.715Z,17
2023-03-31T17:30:17.753Z,16
2023-03-31T17:35:17.895Z,16
2023-03-31T17:40:17.667Z,15
2023-03-31T17:45:18.132Z,19
2023-03-31T17:50:17.714Z,17
2023-03-31T17:55:17.980Z,18
2023-03-31T18:00:17.897Z,22
2023-03-31T18:05:18.581Z,22
2023-03-31T18:10:18.011Z,21
2023-03-31T18:15:18.259Z,21
2023-03-31T18:20:17.875Z,20
2023-03-31T18:25:17.910Z,21
2023-03-31T18:30:17.946Z,21
2023-03-31T18:35:18.026Z,22
2023-03-31T18:40:17.847Z,25
2023-03-31T18:45:18.212Z,25
2023-03-31T18:50:18.063Z,23
2023-03-31T18:55:18.153Z,22
2023-03-31T19:00:18.241Z,24
2023-03-31T19:05:18.015Z,24
2023-03-31T19:10:17.822Z,24
2023-03-31T19:15:18.360Z,26
2023-03-31T19:20:18.052Z,27
2023-03-31T19:25:18.110Z,28
2023-03-31T19:30:18.177Z,30
2023-03-31T19:35:18.196Z,32
2023-03-31T19:40:17.963Z,31
2023-03-31T19:45:18.156Z,32
2023-03-31T19:50:17.986Z,30
2023-03-31T19:55:18.375Z,29
2023-03-31T20:00:18.216Z,28
2023-03-31T20:05:18.398Z,29
2023-03-31T20:10:18.457Z,30
2023-03-31T20:15:18.791Z,29
2023-03-31T20:20:18.350Z,30
2023-03-31T20:25:18.331Z,28
2023-03-31T20:30:18.491Z,28
2023-03-31T20:35:18.343Z,29
2023-03-31T20:40:18.296Z,29
2023-03-31T20:45:18.508Z,28
2023-03-31T20:50:16.164Z,28
2023-03-31T20:55:16.547Z,30
2023-03-31T21:00:16.282Z,28
2023-03-31T21:05:16.456Z,29
2023-03-31T21:10:16.237Z,30
2023-03-31T21:15:16.743Z,31
2023-03-31T21:20:16.205Z,31
2023-03-31T21:25:16.294Z,31
2023-03-31T21:30:16.724Z,31
2023-03-31T21:35:16.411Z,30
2023-03-31T21:40:16.457Z,25
2023-03-31T21:45:16.470Z,29
2023-03-31T21:50:16.393Z,31
2023-03-31T21:55:16.439Z,30
2023-03-31T22:00:16.608Z,31
2023-03-31T22:05:16.583Z,25
2023-03-31T22:10:16.445Z,30
2023-03-31T22:15:16.695Z,27
2023-03-31T22:20:16.401Z,26
2023-03-31T22:25:16.739Z,30
2023-03-31T22:30:16.709Z,30
2023-03-31T22:35:16.631Z,28
2023-03-31T22:40:16.812Z,30
2023-03-31T22:45:17.370Z,30
2023-03-31T22:50:16.618Z,30
2023-03-31T22:55:16.945Z,30
2023-03-31T23:00:16.665Z,29
2023-03-31T23:05:16.699Z,27
2023-03-31T23:10:16.656Z,32
2023-03-31T23:15:17.134Z,31
2023-03-31T23:20:16.520Z,29
2023-03-31T23:25:16.665Z,27
2023-03-31T23:30:16.797Z,31
2023-03-31T23:35:16.943Z,29
2023-03-31T23:40:16.690Z,27
2023-03-31T23:45:16.785Z,24
2023-03-31T23:50:17.175Z,23
2023-03-31T23:55:16.971Z,23
